Terminal Aerodrome Forecast
Issued by NWS

Home | Current Version | Previous Version | Text Only | Print | Product List | Glossary On
Versions: 1 2 3 4 5 6 7 8 9 10 11 12 13 14 15 16 17 18
000
FTUS43 KABR 281100
TAFMBG
TAF
KMBG 281128Z 2812/2912 03006KT P6SM SKC
      TEMPO 2812/2813 5SM BR SCT002
     FM290200 12006KT P6SM SKC=

USA.gov is the U.S. government's official web portal to all federal, state and local government web resources and services.